La Paix — V7FJ9 — position and weather

sailwx.info

Track history (hours):
 
Tides and Currents Weather Stations Pressure Air Temp Water Temp Dewpoint Dewpoint Depression Visibility Wind Speed Wind Dir Waves Ship Positions

La Paix

Last reported at 2017-Oct-10 03:40 UTC. Time now 2017-Oct-19 07:15 UTC.
Position N 37°25' E 025°55'.
Warning: this ship's position is 9 days out of date.

Length 270 m; draft 8.7 m.

Type: Cargo ship. MMSI: 538005606.

Date/timePositionNaut miles runAvg speedWind from/ knotsBaromVisibWave heightAir tempDewpointWater temp
2017-Oct-10 03:40N 37°25' E 025°55'212.5
2017-Oct-10 03:30N 37°26' E 025°54'611.9
2017-Oct-10 03:00N 37°32' E 025°52'712.3
2017-Oct-10 02:24N 37°39' E 025°51'  
2017-Oct-06 16:53N 40°00' E 025°58'95 4.0
2017-Oct-05 17:29N 40°47' E 027°46'4110.1
2017-Oct-05 13:22N 40°45' E 028°41'912.2
2017-Oct-05 12:39N 40°45' E 028°52'312.5
2017-Oct-05 12:23N 40°46' E 028°57'512.5
2017-Oct-05 12:00N 40°46' E 029°03'612.3
2017-Oct-05 11:30N 40°45' E 029°11'612.1
2017-Oct-05 11:00N 40°45' E 029°19'4 7.7
2017-Oct-05 10:28N 40°45' E 029°24'611.3
2017-Oct-05 09:58N 40°45' E 029°32'  
2017-Oct-01 21:58N 40°46' E 029°40'1 1.5
2017-Oct-01 21:25N 40°45' E 029°40'8 9.1
2017-Oct-01 20:34N 40°45' E 029°30'1 9.4
2017-Oct-01 20:30N 40°45' E 029°29'612.2
2017-Oct-01 20:00N 40°43' E 029°22'4 8.4
2017-Oct-01 19:30N 40°43' E 029°16'714.1
2017-Oct-01 19:00N 40°44' E 029°07'713.9
2017-Oct-01 18:30N 40°43' E 028°58'  
Track history (hours):
 
Tides and Currents Weather Stations Pressure Air Temp Water Temp Dewpoint Dewpoint Depression Visibility Wind Speed Wind Dir Waves Ship Positions

La Paix

Last reported at 2017-Oct-10 03:40 UTC. Time now 2017-Oct-19 07:15 UTC.
Position N 37°25' E 025°55'.
Warning: this ship's position is 9 days out of date.

Length 270 m; draft 8.7 m.

Type: Cargo ship. MMSI: 538005606.

Date/timePositionNaut miles runAvg speedWind from/ knotsBaromVisibWave heightAir tempDewpointWater temp
2017-Oct-10 03:40N 37°25' E 025°55'212.5
2017-Oct-10 03:30N 37°26' E 025°54'611.9
2017-Oct-10 03:00N 37°32' E 025°52'712.3
2017-Oct-10 02:24N 37°39' E 025°51'  
2017-Oct-06 16:53N 40°00' E 025°58'95 4.0
2017-Oct-05 17:29N 40°47' E 027°46'4110.1
2017-Oct-05 13:22N 40°45' E 028°41'912.2
2017-Oct-05 12:39N 40°45' E 028°52'312.5
2017-Oct-05 12:23N 40°46' E 028°57'512.5
2017-Oct-05 12:00N 40°46' E 029°03'612.3
2017-Oct-05 11:30N 40°45' E 029°11'612.1
2017-Oct-05 11:00N 40°45' E 029°19'4 7.7
2017-Oct-05 10:28N 40°45' E 029°24'611.3
2017-Oct-05 09:58N 40°45' E 029°32'  
2017-Oct-01 21:58N 40°46' E 029°40'1 1.5
2017-Oct-01 21:25N 40°45' E 029°40'8 9.1
2017-Oct-01 20:34N 40°45' E 029°30'1 9.4
2017-Oct-01 20:30N 40°45' E 029°29'612.2
2017-Oct-01 20:00N 40°43' E 029°22'4 8.4
2017-Oct-01 19:30N 40°43' E 029°16'714.1
2017-Oct-01 19:00N 40°44' E 029°07'713.9
2017-Oct-01 18:30N 40°43' E 028°58'  

Dump ship's entire track history